Aeroporto :
LOGIN :

Iscrizione | Disclaimer

   EN    FR    IT 

 










Sommario :    VFR   VFR Marginale   IFR   IFR Intensivo   IFR Molto Intensivo
Visibilità : 
Base nubi : 
>= 8 km
>= 3000ft
5 / 8 km
1000 / 3000 ft
1500m / 5 km
500 / 1000 ft
800 / 1500m
200 / 500 ft
< 800m
< 200 ft
Simboli :   Temporali  Nebbia  Neve Forte  Precipitazioni Forti  Vento > 20 kt
SIGMETs :   Varie  Temporali  Ghiacco  Turbolenza  Onda orograficha  Ceneri Vulcaniche






- Altitudine del aeroporto : 0 ft


ETEB - Ansbach Army Heliport

ULTIMO METAR :
  • 241656Z AUTO 25007KT 9999 FEW050 17/08 A2984 RMK AO2 SLP111 T01730079 $

METARs OBSOLETI :
  • 241556Z AUTO 25006KT 9999 FEW100 18/08 A2983 RMK AO2 SLP106 T01760079 $
  • 241456Z AUTO 24013KT 9999 FEW100 18/09 A2982 RMK AO2 DZB18E24 SLP102 P0000 60000 T01790085 51003 $

TAF TAF ETEB
Valido dal 24 a 15 ore il 25 a 21 ore UTC


241500Z 2415/2521 27010G15KT 9999 FEW050 SCT100 QNH2985INS
BECMG 2422/2423 25009KT 9999 SCT040 BKN050 QNH2991INS TX18/2415Z TN10/2500Z LAST NO AMDS AFT 2422 NEXT 2507



MetMap, La meteo Aeronautica in un colpo d'occhio ! - Copyright ORBIFLY Dicembre 2007 - Disclaimer

ORBIFLY MET'MAP TEAM :

Programmazione e sviluppo : Alexandra Zaïnal
Concezione : Baudouin d'Aumeries
Supporto tecnico e logistico : Manuel Goepfert
Aiuto : Marc-Olivier Méhu
Aiuto per la traduzione : Arnaldo La Scala

Contatto : metmap@orbifly.com




FONTI E CREDITI :

   NOAA